sensor_id;sensor_type;location;lat;lon;timestamp;P1;durP1;ratioP1;P2;durP2;ratioP2
15921;SDS011;8060;50.948;3.146;2023-10-31T00:01:24;22.37;;;13.07;;
15921;SDS011;8060;50.948;3.146;2023-10-31T00:03:52;18.40;;;12.63;;
15921;SDS011;8060;50.948;3.146;2023-10-31T00:06:21;16.77;;;12.33;;
15921;SDS011;8060;50.948;3.146;2023-10-31T00:08:49;18.20;;;12.30;;
15921;SDS011;8060;50.948;3.146;2023-10-31T00:11:18;18.27;;;12.13;;
15921;SDS011;8060;50.948;3.146;2023-10-31T00:13:47;16.93;;;11.13;;
15921;SDS011;8060;50.948;3.146;2023-10-31T00:16:15;16.77;;;11.10;;
15921;SDS011;8060;50.948;3.146;2023-10-31T00:18:43;16.00;;;11.13;;
15921;SDS011;8060;50.948;3.146;2023-10-31T00:21:11;17.87;;;10.33;;
15921;SDS011;8060;50.948;3.146;2023-10-31T00:23:43;18.63;;;10.57;;
15921;SDS011;8060;50.948;3.146;2023-10-31T00:26:11;12.57;;;9.47;;
15921;SDS011;8060;50.948;3.146;2023-10-31T00:28:39;19.43;;;10.17;;
15921;SDS011;8060;50.948;3.146;2023-10-31T00:31:09;15.67;;;9.60;;
15921;SDS011;8060;50.948;3.146;2023-10-31T00:33:37;16.83;;;9.60;;
15921;SDS011;8060;50.948;3.146;2023-10-31T00:36:06;13.10;;;9.37;;
15921;SDS011;8060;50.948;3.146;2023-10-31T00:38:35;16.83;;;9.47;;
15921;SDS011;8060;50.948;3.146;2023-10-31T00:41:03;16.33;;;8.97;;
15921;SDS011;8060;50.948;3.146;2023-10-31T00:43:31;12.33;;;8.87;;
15921;SDS011;8060;50.948;3.146;2023-10-31T00:45:59;18.90;;;9.60;;
15921;SDS011;8060;50.948;3.146;2023-10-31T00:48:30;14.63;;;8.80;;
15921;SDS011;8060;50.948;3.146;2023-10-31T00:51:02;12.73;;;8.40;;
15921;SDS011;8060;50.948;3.146;2023-10-31T00:53:30;11.73;;;8.27;;
15921;SDS011;8060;50.948;3.146;2023-10-31T00:55:59;13.63;;;8.93;;
15921;SDS011;8060;50.948;3.146;2023-10-31T00:58:27;11.80;;;8.57;;
15921;SDS011;8060;50.948;3.146;2023-10-31T01:00:55;11.20;;;8.73;;
15921;SDS011;8060;50.948;3.146;2023-10-31T01:03:23;20.17;;;8.47;;
15921;SDS011;8060;50.948;3.146;2023-10-31T01:05:53;14.00;;;8.37;;
15921;SDS011;8060;50.948;3.146;2023-10-31T01:08:21;13.73;;;8.47;;
15921;SDS011;8060;50.948;3.146;2023-10-31T01:10:49;12.90;;;7.57;;
15921;SDS011;8060;50.948;3.146;2023-10-31T01:13:17;11.40;;;7.67;;
15921;SDS011;8060;50.948;3.146;2023-10-31T01:15:45;10.47;;;6.23;;
15921;SDS011;8060;50.948;3.146;2023-10-31T01:18:14;9.17;;;6.47;;
15921;SDS011;8060;50.948;3.146;2023-10-31T01:20:42;11.67;;;6.07;;
15921;SDS011;8060;50.948;3.146;2023-10-31T01:23:11;7.90;;;5.23;;
15921;SDS011;8060;50.948;3.146;2023-10-31T01:25:40;6.90;;;4.57;;
15921;SDS011;8060;50.948;3.146;2023-10-31T01:28:08;7.40;;;4.20;;
15921;SDS011;8060;50.948;3.146;2023-10-31T01:30:36;7.37;;;3.60;;
15921;SDS011;8060;50.948;3.146;2023-10-31T01:33:04;6.50;;;4.00;;
15921;SDS011;8060;50.948;3.146;2023-10-31T01:35:32;6.70;;;3.13;;
15921;SDS011;8060;50.948;3.146;2023-10-31T01:38:00;6.07;;;2.97;;
15921;SDS011;8060;50.948;3.146;2023-10-31T01:40:30;5.23;;;2.90;;
15921;SDS011;8060;50.948;3.146;2023-10-31T01:42:58;4.23;;;2.33;;
15921;SDS011;8060;50.948;3.146;2023-10-31T01:45:26;5.70;;;2.20;;
15921;SDS011;8060;50.948;3.146;2023-10-31T01:47:54;4.73;;;2.20;;
15921;SDS011;8060;50.948;3.146;2023-10-31T01:50:22;3.10;;;2.00;;
15921;SDS011;8060;50.948;3.146;2023-10-31T01:52:51;4.63;;;1.90;;
15921;SDS011;8060;50.948;3.146;2023-10-31T01:55:19;2.70;;;1.93;;
15921;SDS011;8060;50.948;3.146;2023-10-31T01:57:49;2.37;;;1.43;;
15921;SDS011;8060;50.948;3.146;2023-10-31T02:00:18;3.20;;;1.50;;
15921;SDS011;8060;50.948;3.146;2023-10-31T02:02:45;4.03;;;1.60;;
15921;SDS011;8060;50.948;3.146;2023-10-31T02:05:13;2.77;;;1.57;;
15921;SDS011;8060;50.948;3.146;2023-10-31T02:07:44;3.83;;;1.60;;
15921;SDS011;8060;50.948;3.146;2023-10-31T02:10:12;3.80;;;2.00;;
15921;SDS011;8060;50.948;3.146;2023-10-31T02:12:40;2.80;;;1.67;;
15921;SDS011;8060;50.948;3.146;2023-10-31T02:15:11;4.43;;;1.80;;
15921;SDS011;8060;50.948;3.146;2023-10-31T02:17:39;3.83;;;1.87;;
15921;SDS011;8060;50.948;3.146;2023-10-31T02:20:07;4.23;;;2.30;;
15921;SDS011;8060;50.948;3.146;2023-10-31T02:22:37;5.17;;;3.00;;
15921;SDS011;8060;50.948;3.146;2023-10-31T02:25:15;4.23;;;2.70;;
15921;SDS011;8060;50.948;3.146;2023-10-31T02:27:44;4.60;;;2.70;;
15921;SDS011;8060;50.948;3.146;2023-10-31T02:30:12;5.20;;;3.17;;
15921;SDS011;8060;50.948;3.146;2023-10-31T02:32:40;4.97;;;4.00;;
15921;SDS011;8060;50.948;3.146;2023-10-31T02:35:09;8.00;;;4.00;;
15921;SDS011;8060;50.948;3.146;2023-10-31T02:37:39;7.03;;;4.10;;
15921;SDS011;8060;50.948;3.146;2023-10-31T02:40:08;4.93;;;4.10;;
15921;SDS011;8060;50.948;3.146;2023-10-31T02:42:36;9.20;;;4.43;;
15921;SDS011;8060;50.948;3.146;2023-10-31T02:45:04;6.87;;;5.33;;
15921;SDS011;8060;50.948;3.146;2023-10-31T02:47:34;6.50;;;5.13;;
15921;SDS011;8060;50.948;3.146;2023-10-31T02:50:02;6.33;;;4.33;;
15921;SDS011;8060;50.948;3.146;2023-10-31T02:52:30;8.73;;;5.70;;
15921;SDS011;8060;50.948;3.146;2023-10-31T02:55:00;5.77;;;4.93;;
15921;SDS011;8060;50.948;3.146;2023-10-31T02:57:28;5.97;;;5.13;;
15921;SDS011;8060;50.948;3.146;2023-10-31T02:59:56;8.47;;;5.27;;
15921;SDS011;8060;50.948;3.146;2023-10-31T03:02:24;8.17;;;6.37;;
15921;SDS011;8060;50.948;3.146;2023-10-31T03:04:52;9.13;;;5.90;;
15921;SDS011;8060;50.948;3.146;2023-10-31T03:07:20;6.80;;;5.60;;
15921;SDS011;8060;50.948;3.146;2023-10-31T03:09:49;7.53;;;5.80;;
15921;SDS011;8060;50.948;3.146;2023-10-31T03:12:18;7.80;;;5.93;;
15921;SDS011;8060;50.948;3.146;2023-10-31T03:14:46;8.10;;;6.07;;
15921;SDS011;8060;50.948;3.146;2023-10-31T03:17:14;9.20;;;6.37;;
15921;SDS011;8060;50.948;3.146;2023-10-31T03:19:42;9.70;;;6.27;;
15921;SDS011;8060;50.948;3.146;2023-10-31T03:22:10;11.47;;;6.30;;
15921;SDS011;8060;50.948;3.146;2023-10-31T03:24:39;8.53;;;6.73;;
15921;SDS011;8060;50.948;3.146;2023-10-31T03:27:07;8.57;;;6.67;;
15921;SDS011;8060;50.948;3.146;2023-10-31T03:29:37;12.10;;;6.83;;
15921;SDS011;8060;50.948;3.146;2023-10-31T03:32:05;8.37;;;6.77;;
15921;SDS011;8060;50.948;3.146;2023-10-31T03:34:34;9.33;;;6.90;;
15921;SDS011;8060;50.948;3.146;2023-10-31T03:37:02;12.57;;;7.20;;
15921;SDS011;8060;50.948;3.146;2023-10-31T03:39:30;10.17;;;8.20;;
15921;SDS011;8060;50.948;3.146;2023-10-31T03:41:58;9.27;;;8.00;;
15921;SDS011;8060;50.948;3.146;2023-10-31T03:44:27;9.87;;;8.07;;
15921;SDS011;8060;50.948;3.146;2023-10-31T03:46:56;8.87;;;7.97;;
15921;SDS011;8060;50.948;3.146;2023-10-31T03:49:24;9.50;;;7.67;;
15921;SDS011;8060;50.948;3.146;2023-10-31T03:51:52;12.17;;;8.80;;
15921;SDS011;8060;50.948;3.146;2023-10-31T03:54:20;11.67;;;8.00;;
15921;SDS011;8060;50.948;3.146;2023-10-31T03:56:48;10.07;;;8.17;;
15921;SDS011;8060;50.948;3.146;2023-10-31T03:59:17;11.03;;;8.47;;
15921;SDS011;8060;50.948;3.146;2023-10-31T04:01:45;13.33;;;9.17;;
15921;SDS011;8060;50.948;3.146;2023-10-31T04:04:14;13.90;;;8.30;;
15921;SDS011;8060;50.948;3.146;2023-10-31T04:06:42;12.17;;;8.57;;
15921;SDS011;8060;50.948;3.146;2023-10-31T04:09:10;10.37;;;8.17;;
15921;SDS011;8060;50.948;3.146;2023-10-31T04:11:38;10.43;;;8.20;;
15921;SDS011;8060;50.948;3.146;2023-10-31T04:14:07;12.53;;;8.60;;
15921;SDS011;8060;50.948;3.146;2023-10-31T04:16:38;12.57;;;9.00;;
15921;SDS011;8060;50.948;3.146;2023-10-31T04:19:06;11.77;;;8.60;;
15921;SDS011;8060;50.948;3.146;2023-10-31T04:21:36;13.10;;;9.27;;
15921;SDS011;8060;50.948;3.146;2023-10-31T04:24:04;19.33;;;9.67;;
15921;SDS011;8060;50.948;3.146;2023-10-31T04:26:33;13.63;;;10.10;;
15921;SDS011;8060;50.948;3.146;2023-10-31T04:29:01;14.70;;;9.30;;
15921;SDS011;8060;50.948;3.146;2023-10-31T04:31:29;15.17;;;10.07;;
15921;SDS011;8060;50.948;3.146;2023-10-31T04:34:09;12.93;;;10.03;;
15921;SDS011;8060;50.948;3.146;2023-10-31T04:36:38;13.57;;;10.37;;
15921;SDS011;8060;50.948;3.146;2023-10-31T04:39:07;15.03;;;10.53;;
15921;SDS011;8060;50.948;3.146;2023-10-31T04:41:35;13.07;;;10.33;;
15921;SDS011;8060;50.948;3.146;2023-10-31T04:44:04;17.60;;;11.00;;
15921;SDS011;8060;50.948;3.146;2023-10-31T04:46:32;14.03;;;11.03;;
15921;SDS011;8060;50.948;3.146;2023-10-31T04:49:01;14.23;;;10.63;;
15921;SDS011;8060;50.948;3.146;2023-10-31T04:51:32;16.50;;;11.27;;
15921;SDS011;8060;50.948;3.146;2023-10-31T04:54:02;15.83;;;10.37;;
15921;SDS011;8060;50.948;3.146;2023-10-31T04:56:30;15.83;;;11.33;;
15921;SDS011;8060;50.948;3.146;2023-10-31T04:58:58;15.00;;;11.80;;
15921;SDS011;8060;50.948;3.146;2023-10-31T05:01:27;23.63;;;11.93;;
15921;SDS011;8060;50.948;3.146;2023-10-31T05:03:55;16.80;;;11.83;;
15921;SDS011;8060;50.948;3.146;2023-10-31T05:06:36;17.23;;;11.73;;
15921;SDS011;8060;50.948;3.146;2023-10-31T05:09:05;20.53;;;12.60;;
15921;SDS011;8060;50.948;3.146;2023-10-31T05:11:34;19.63;;;12.07;;
15921;SDS011;8060;50.948;3.146;2023-10-31T05:14:02;17.03;;;12.60;;
15921;SDS011;8060;50.948;3.146;2023-10-31T05:16:30;18.97;;;13.40;;
15921;SDS011;8060;50.948;3.146;2023-10-31T05:18:58;19.37;;;13.43;;
15921;SDS011;8060;50.948;3.146;2023-10-31T05:21:31;20.83;;;13.47;;
15921;SDS011;8060;50.948;3.146;2023-10-31T05:23:59;19.07;;;13.33;;
15921;SDS011;8060;50.948;3.146;2023-10-31T05:26:28;20.07;;;14.47;;
15921;SDS011;8060;50.948;3.146;2023-10-31T05:28:56;21.30;;;15.27;;
15921;SDS011;8060;50.948;3.146;2023-10-31T05:31:25;23.13;;;15.37;;
15921;SDS011;8060;50.948;3.146;2023-10-31T05:33:53;19.80;;;15.43;;
15921;SDS011;8060;50.948;3.146;2023-10-31T05:36:22;23.17;;;16.43;;
15921;SDS011;8060;50.948;3.146;2023-10-31T05:38:50;26.23;;;16.03;;
15921;SDS011;8060;50.948;3.146;2023-10-31T05:41:19;22.63;;;16.00;;
15921;SDS011;8060;50.948;3.146;2023-10-31T05:43:48;25.03;;;16.97;;
15921;SDS011;8060;50.948;3.146;2023-10-31T05:46:16;25.87;;;17.00;;
15921;SDS011;8060;50.948;3.146;2023-10-31T05:48:45;27.57;;;17.50;;
15921;SDS011;8060;50.948;3.146;2023-10-31T05:51:16;32.70;;;17.00;;
15921;SDS011;8060;50.948;3.146;2023-10-31T05:53:46;27.70;;;17.03;;
15921;SDS011;8060;50.948;3.146;2023-10-31T05:56:16;27.00;;;16.90;;
15921;SDS011;8060;50.948;3.146;2023-10-31T05:58:44;31.73;;;14.87;;
15921;SDS011;8060;50.948;3.146;2023-10-31T06:01:14;34.37;;;17.20;;
15921;SDS011;8060;50.948;3.146;2023-10-31T06:03:42;32.47;;;16.90;;
15921;SDS011;8060;50.948;3.146;2023-10-31T06:06:11;37.90;;;18.10;;
15921;SDS011;8060;50.948;3.146;2023-10-31T06:08:39;26.40;;;17.23;;
15921;SDS011;8060;50.948;3.146;2023-10-31T06:11:08;30.60;;;16.63;;
15921;SDS011;8060;50.948;3.146;2023-10-31T06:13:39;30.40;;;16.30;;
15921;SDS011;8060;50.948;3.146;2023-10-31T06:16:07;35.00;;;17.80;;
15921;SDS011;8060;50.948;3.146;2023-10-31T06:18:38;36.57;;;18.67;;
15921;SDS011;8060;50.948;3.146;2023-10-31T06:21:07;30.57;;;18.80;;
15921;SDS011;8060;50.948;3.146;2023-10-31T06:23:36;31.90;;;19.73;;
15921;SDS011;8060;50.948;3.146;2023-10-31T06:26:04;36.07;;;21.00;;
15921;SDS011;8060;50.948;3.146;2023-10-31T06:28:33;29.43;;;18.67;;
15921;SDS011;8060;50.948;3.146;2023-10-31T06:31:10;34.60;;;19.83;;
15921;SDS011;8060;50.948;3.146;2023-10-31T06:33:40;33.70;;;21.60;;
15921;SDS011;8060;50.948;3.146;2023-10-31T06:36:08;34.73;;;22.57;;
15921;SDS011;8060;50.948;3.146;2023-10-31T06:38:37;36.50;;;22.60;;
15921;SDS011;8060;50.948;3.146;2023-10-31T06:41:06;38.90;;;23.13;;
15921;SDS011;8060;50.948;3.146;2023-10-31T06:43:34;40.17;;;25.20;;
15921;SDS011;8060;50.948;3.146;2023-10-31T06:46:02;36.60;;;22.77;;
15921;SDS011;8060;50.948;3.146;2023-10-31T06:48:32;38.57;;;24.73;;
15921;SDS011;8060;50.948;3.146;2023-10-31T06:51:01;43.37;;;24.63;;
15921;SDS011;8060;50.948;3.146;2023-10-31T06:53:30;41.20;;;24.70;;
15921;SDS011;8060;50.948;3.146;2023-10-31T06:55:58;40.07;;;24.60;;
15921;SDS011;8060;50.948;3.146;2023-10-31T06:58:26;38.90;;;24.33;;
15921;SDS011;8060;50.948;3.146;2023-10-31T07:00:54;38.00;;;23.83;;
15921;SDS011;8060;50.948;3.146;2023-10-31T07:03:24;35.67;;;21.90;;
15921;SDS011;8060;50.948;3.146;2023-10-31T07:05:53;33.27;;;19.80;;
15921;SDS011;8060;50.948;3.146;2023-10-31T07:08:23;30.97;;;20.57;;
15921;SDS011;8060;50.948;3.146;2023-10-31T07:10:52;31.67;;;20.23;;
15921;SDS011;8060;50.948;3.146;2023-10-31T07:13:20;30.53;;;18.70;;
15921;SDS011;8060;50.948;3.146;2023-10-31T07:15:48;26.97;;;18.23;;
15921;SDS011;8060;50.948;3.146;2023-10-31T07:18:16;23.37;;;17.03;;
15921;SDS011;8060;50.948;3.146;2023-10-31T07:20:44;25.17;;;16.33;;
15921;SDS011;8060;50.948;3.146;2023-10-31T07:23:12;26.53;;;16.90;;
15921;SDS011;8060;50.948;3.146;2023-10-31T07:25:42;26.13;;;16.80;;
15921;SDS011;8060;50.948;3.146;2023-10-31T07:28:11;26.03;;;16.50;;
15921;SDS011;8060;50.948;3.146;2023-10-31T07:30:39;22.77;;;15.67;;
15921;SDS011;8060;50.948;3.146;2023-10-31T07:33:07;23.83;;;15.37;;
15921;SDS011;8060;50.948;3.146;2023-10-31T07:35:36;24.30;;;14.53;;
15921;SDS011;8060;50.948;3.146;2023-10-31T07:38:04;21.40;;;15.40;;
15921;SDS011;8060;50.948;3.146;2023-10-31T07:40:32;26.40;;;15.90;;
15921;SDS011;8060;50.948;3.146;2023-10-31T07:43:01;19.80;;;14.60;;
15921;SDS011;8060;50.948;3.146;2023-10-31T07:45:30;23.13;;;15.23;;
15921;SDS011;8060;50.948;3.146;2023-10-31T07:47:58;19.73;;;14.47;;
15921;SDS011;8060;50.948;3.146;2023-10-31T07:50:26;17.87;;;13.90;;
15921;SDS011;8060;50.948;3.146;2023-10-31T07:52:54;19.37;;;14.30;;
15921;SDS011;8060;50.948;3.146;2023-10-31T07:55:22;20.77;;;14.00;;
15921;SDS011;8060;50.948;3.146;2023-10-31T07:57:50;19.07;;;14.00;;
15921;SDS011;8060;50.948;3.146;2023-10-31T08:00:21;21.23;;;14.23;;
15921;SDS011;8060;50.948;3.146;2023-10-31T08:02:49;21.43;;;14.07;;
15921;SDS011;8060;50.948;3.146;2023-10-31T08:05:19;24.43;;;14.63;;
15921;SDS011;8060;50.948;3.146;2023-10-31T08:07:47;22.73;;;14.30;;
15921;SDS011;8060;50.948;3.146;2023-10-31T08:10:15;20.47;;;14.03;;
15921;SDS011;8060;50.948;3.146;2023-10-31T08:12:43;22.87;;;13.47;;
15921;SDS011;8060;50.948;3.146;2023-10-31T08:15:12;25.67;;;16.60;;
15921;SDS011;8060;50.948;3.146;2023-10-31T08:17:43;26.57;;;16.80;;
15921;SDS011;8060;50.948;3.146;2023-10-31T08:20:11;29.83;;;17.63;;
15921;SDS011;8060;50.948;3.146;2023-10-31T08:22:40;21.77;;;15.60;;
15921;SDS011;8060;50.948;3.146;2023-10-31T08:25:09;20.13;;;14.33;;
15921;SDS011;8060;50.948;3.146;2023-10-31T08:27:38;16.73;;;12.87;;
15921;SDS011;8060;50.948;3.146;2023-10-31T08:30:07;17.67;;;12.90;;
15921;SDS011;8060;50.948;3.146;2023-10-31T08:32:36;19.43;;;13.33;;
15921;SDS011;8060;50.948;3.146;2023-10-31T08:35:06;20.60;;;13.87;;
15921;SDS011;8060;50.948;3.146;2023-10-31T08:37:34;19.80;;;14.20;;
15921;SDS011;8060;50.948;3.146;2023-10-31T08:40:03;19.23;;;13.43;;
15921;SDS011;8060;50.948;3.146;2023-10-31T08:42:32;21.10;;;14.27;;
15921;SDS011;8060;50.948;3.146;2023-10-31T08:45:00;21.87;;;14.83;;
15921;SDS011;8060;50.948;3.146;2023-10-31T08:47:28;23.27;;;14.87;;
15921;SDS011;8060;50.948;3.146;2023-10-31T08:49:57;19.77;;;14.00;;
15921;SDS011;8060;50.948;3.146;2023-10-31T08:52:26;23.00;;;15.07;;
15921;SDS011;8060;50.948;3.146;2023-10-31T08:54:54;20.97;;;14.57;;
15921;SDS011;8060;50.948;3.146;2023-10-31T08:57:22;21.23;;;14.43;;
15921;SDS011;8060;50.948;3.146;2023-10-31T08:59:51;25.50;;;15.63;;
15921;SDS011;8060;50.948;3.146;2023-10-31T09:02:19;27.37;;;15.90;;
15921;SDS011;8060;50.948;3.146;2023-10-31T09:04:47;25.87;;;14.73;;
15921;SDS011;8060;50.948;3.146;2023-10-31T09:07:15;22.17;;;14.33;;
15921;SDS011;8060;50.948;3.146;2023-10-31T09:09:44;23.50;;;14.00;;
15921;SDS011;8060;50.948;3.146;2023-10-31T09:12:12;21.80;;;14.20;;
15921;SDS011;8060;50.948;3.146;2023-10-31T09:14:42;29.20;;;15.47;;
15921;SDS011;8060;50.948;3.146;2023-10-31T09:17:10;24.77;;;14.67;;
15921;SDS011;8060;50.948;3.146;2023-10-31T09:19:38;22.73;;;14.00;;
15921;SDS011;8060;50.948;3.146;2023-10-31T09:22:06;22.37;;;14.90;;
15921;SDS011;8060;50.948;3.146;2023-10-31T09:24:35;23.43;;;14.70;;
15921;SDS011;8060;50.948;3.146;2023-10-31T09:27:04;24.53;;;13.17;;
15921;SDS011;8060;50.948;3.146;2023-10-31T09:29:33;27.53;;;13.93;;
15921;SDS011;8060;50.948;3.146;2023-10-31T09:32:01;29.40;;;15.20;;
15921;SDS011;8060;50.948;3.146;2023-10-31T09:34:29;21.00;;;14.83;;
15921;SDS011;8060;50.948;3.146;2023-10-31T09:36:57;23.93;;;14.47;;
15921;SDS011;8060;50.948;3.146;2023-10-31T09:39:25;22.67;;;14.67;;
15921;SDS011;8060;50.948;3.146;2023-10-31T09:41:54;26.70;;;15.10;;
15921;SDS011;8060;50.948;3.146;2023-10-31T09:44:24;23.97;;;14.37;;
15921;SDS011;8060;50.948;3.146;2023-10-31T09:46:52;28.13;;;14.90;;
15921;SDS011;8060;50.948;3.146;2023-10-31T09:49:20;27.83;;;14.83;;
15921;SDS011;8060;50.948;3.146;2023-10-31T09:51:48;26.43;;;14.67;;
15921;SDS011;8060;50.948;3.146;2023-10-31T09:54:17;29.20;;;16.47;;
15921;SDS011;8060;50.948;3.146;2023-10-31T09:56:45;26.07;;;15.33;;
15921;SDS011;8060;50.948;3.146;2023-10-31T09:59:14;24.83;;;16.23;;
15921;SDS011;8060;50.948;3.146;2023-10-31T10:01:45;29.73;;;16.50;;
15921;SDS011;8060;50.948;3.146;2023-10-31T10:04:16;27.20;;;15.93;;
15921;SDS011;8060;50.948;3.146;2023-10-31T10:06:51;27.73;;;16.80;;
15921;SDS011;8060;50.948;3.146;2023-10-31T10:09:25;27.03;;;15.90;;
15921;SDS011;8060;50.948;3.146;2023-10-31T10:11:54;29.97;;;17.37;;
15921;SDS011;8060;50.948;3.146;2023-10-31T10:14:23;34.90;;;17.93;;
15921;SDS011;8060;50.948;3.146;2023-10-31T10:16:52;27.23;;;17.20;;
15921;SDS011;8060;50.948;3.146;2023-10-31T10:19:21;27.40;;;16.50;;
15921;SDS011;8060;50.948;3.146;2023-10-31T10:21:51;27.00;;;15.03;;
15921;SDS011;8060;50.948;3.146;2023-10-31T10:24:20;28.87;;;15.27;;
15921;SDS011;8060;50.948;3.146;2023-10-31T10:26:50;26.10;;;14.93;;
15921;SDS011;8060;50.948;3.146;2023-10-31T10:29:19;26.53;;;16.83;;
15921;SDS011;8060;50.948;3.146;2023-10-31T10:31:47;22.50;;;14.77;;
15921;SDS011;8060;50.948;3.146;2023-10-31T10:34:17;25.93;;;14.93;;
15921;SDS011;8060;50.948;3.146;2023-10-31T10:36:46;29.80;;;15.00;;
15921;SDS011;8060;50.948;3.146;2023-10-31T10:39:16;24.83;;;15.00;;
15921;SDS011;8060;50.948;3.146;2023-10-31T10:41:51;22.20;;;13.77;;
15921;SDS011;8060;50.948;3.146;2023-10-31T10:44:23;25.13;;;13.27;;
15921;SDS011;8060;50.948;3.146;2023-10-31T10:47:01;21.87;;;13.10;;
15921;SDS011;8060;50.948;3.146;2023-10-31T10:49:33;18.80;;;12.63;;
15921;SDS011;8060;50.948;3.146;2023-10-31T10:52:10;17.73;;;10.83;;
15921;SDS011;8060;50.948;3.146;2023-10-31T10:54:45;16.40;;;12.07;;
15921;SDS011;8060;50.948;3.146;2023-10-31T10:57:20;15.30;;;10.60;;
15921;SDS011;8060;50.948;3.146;2023-10-31T10:59:56;33.13;;;15.30;;
15921;SDS011;8060;50.948;3.146;2023-10-31T11:02:29;18.07;;;12.23;;
15921;SDS011;8060;50.948;3.146;2023-10-31T11:04:59;18.10;;;11.40;;
15921;SDS011;8060;50.948;3.146;2023-10-31T11:07:29;32.63;;;14.93;;
15921;SDS011;8060;50.948;3.146;2023-10-31T11:09:59;18.10;;;11.17;;
15921;SDS011;8060;50.948;3.146;2023-10-31T11:12:29;21.80;;;12.70;;
15921;SDS011;8060;50.948;3.146;2023-10-31T11:14:58;17.43;;;12.90;;
15921;SDS011;8060;50.948;3.146;2023-10-31T11:17:27;16.30;;;10.43;;
15921;SDS011;8060;50.948;3.146;2023-10-31T11:19:57;15.20;;;10.20;;
15921;SDS011;8060;50.948;3.146;2023-10-31T11:22:36;14.97;;;9.90;;
15921;SDS011;8060;50.948;3.146;2023-10-31T11:25:06;12.87;;;9.30;;
15921;SDS011;8060;50.948;3.146;2023-10-31T11:27:47;14.10;;;9.63;;
15921;SDS011;8060;50.948;3.146;2023-10-31T11:30:20;13.30;;;9.67;;
15921;SDS011;8060;50.948;3.146;2023-10-31T11:32:50;12.13;;;8.97;;
15921;SDS011;8060;50.948;3.146;2023-10-31T11:35:21;11.73;;;8.37;;
15921;SDS011;8060;50.948;3.146;2023-10-31T11:37:50;14.83;;;9.53;;
15921;SDS011;8060;50.948;3.146;2023-10-31T11:40:29;11.70;;;8.33;;
15921;SDS011;8060;50.948;3.146;2023-10-31T11:43:02;11.40;;;8.67;;
15921;SDS011;8060;50.948;3.146;2023-10-31T11:45:33;13.23;;;8.67;;
15921;SDS011;8060;50.948;3.146;2023-10-31T11:48:03;13.43;;;8.33;;
15921;SDS011;8060;50.948;3.146;2023-10-31T11:50:33;13.20;;;8.70;;
15921;SDS011;8060;50.948;3.146;2023-10-31T11:53:03;9.80;;;7.17;;
15921;SDS011;8060;50.948;3.146;2023-10-31T11:55:33;11.70;;;8.20;;
15921;SDS011;8060;50.948;3.146;2023-10-31T11:58:12;9.67;;;7.60;;
15921;SDS011;8060;50.948;3.146;2023-10-31T12:00:45;9.90;;;7.17;;
15921;SDS011;8060;50.948;3.146;2023-10-31T12:03:15;11.10;;;7.53;;
15921;SDS011;8060;50.948;3.146;2023-10-31T12:05:53;11.67;;;7.10;;
15921;SDS011;8060;50.948;3.146;2023-10-31T12:08:26;8.93;;;6.60;;
15921;SDS011;8060;50.948;3.146;2023-10-31T12:11:05;10.87;;;6.50;;
15921;SDS011;8060;50.948;3.146;2023-10-31T12:13:35;9.27;;;6.20;;
15921;SDS011;8060;50.948;3.146;2023-10-31T12:16:04;10.80;;;6.57;;
15921;SDS011;8060;50.948;3.146;2023-10-31T12:18:33;8.97;;;6.90;;
15921;SDS011;8060;50.948;3.146;2023-10-31T12:21:03;12.43;;;5.87;;
15921;SDS011;8060;50.948;3.146;2023-10-31T12:23:33;8.67;;;5.33;;
15921;SDS011;8060;50.948;3.146;2023-10-31T12:26:01;7.07;;;5.00;;
15921;SDS011;8060;50.948;3.146;2023-10-31T12:28:30;9.03;;;5.40;;
15921;SDS011;8060;50.948;3.146;2023-10-31T12:30:58;9.67;;;5.03;;
15921;SDS011;8060;50.948;3.146;2023-10-31T12:33:26;7.47;;;4.90;;
15921;SDS011;8060;50.948;3.146;2023-10-31T12:35:56;6.20;;;4.47;;
15921;SDS011;8060;50.948;3.146;2023-10-31T12:38:27;10.47;;;4.13;;
15921;SDS011;8060;50.948;3.146;2023-10-31T12:40:56;7.23;;;4.47;;
15921;SDS011;8060;50.948;3.146;2023-10-31T12:43:25;9.77;;;4.10;;
15921;SDS011;8060;50.948;3.146;2023-10-31T12:45:55;7.17;;;4.23;;
15921;SDS011;8060;50.948;3.146;2023-10-31T12:48:24;5.37;;;3.60;;
15921;SDS011;8060;50.948;3.146;2023-10-31T12:51:05;9.00;;;4.13;;
15921;SDS011;8060;50.948;3.146;2023-10-31T12:53:35;9.00;;;5.00;;
15921;SDS011;8060;50.948;3.146;2023-10-31T12:56:03;19.43;;;10.57;;
15921;SDS011;8060;50.948;3.146;2023-10-31T12:58:32;17.53;;;10.00;;
15921;SDS011;8060;50.948;3.146;2023-10-31T13:01:00;25.07;;;14.33;;
15921;SDS011;8060;50.948;3.146;2023-10-31T13:03:28;13.63;;;6.40;;
15921;SDS011;8060;50.948;3.146;2023-10-31T13:05:57;12.60;;;5.60;;
15921;SDS011;8060;50.948;3.146;2023-10-31T13:08:25;13.43;;;8.10;;
15921;SDS011;8060;50.948;3.146;2023-10-31T13:10:56;7.20;;;4.30;;
15921;SDS011;8060;50.948;3.146;2023-10-31T13:13:24;7.07;;;4.40;;
15921;SDS011;8060;50.948;3.146;2023-10-31T13:15:52;5.53;;;3.50;;
15921;SDS011;8060;50.948;3.146;2023-10-31T13:18:21;7.57;;;3.40;;
15921;SDS011;8060;50.948;3.146;2023-10-31T13:20:49;7.27;;;3.40;;
15921;SDS011;8060;50.948;3.146;2023-10-31T13:23:17;4.97;;;2.87;;
15921;SDS011;8060;50.948;3.146;2023-10-31T13:25:45;5.27;;;3.30;;
15921;SDS011;8060;50.948;3.146;2023-10-31T13:28:16;6.90;;;2.90;;
15921;SDS011;8060;50.948;3.146;2023-10-31T13:30:44;7.00;;;2.10;;
15921;SDS011;8060;50.948;3.146;2023-10-31T13:33:13;3.47;;;2.40;;
15921;SDS011;8060;50.948;3.146;2023-10-31T13:35:41;5.40;;;2.40;;
15921;SDS011;8060;50.948;3.146;2023-10-31T13:38:09;4.70;;;2.40;;
15921;SDS011;8060;50.948;3.146;2023-10-31T13:40:38;4.23;;;2.40;;
15921;SDS011;8060;50.948;3.146;2023-10-31T13:43:06;6.07;;;2.60;;
15921;SDS011;8060;50.948;3.146;2023-10-31T13:45:37;7.10;;;2.87;;
15921;SDS011;8060;50.948;3.146;2023-10-31T13:48:05;4.07;;;2.30;;
15921;SDS011;8060;50.948;3.146;2023-10-31T13:50:33;6.37;;;3.00;;
15921;SDS011;8060;50.948;3.146;2023-10-31T13:53:01;6.10;;;3.00;;
15921;SDS011;8060;50.948;3.146;2023-10-31T13:55:31;7.73;;;3.40;;
15921;SDS011;8060;50.948;3.146;2023-10-31T13:57:59;7.63;;;2.80;;
15921;SDS011;8060;50.948;3.146;2023-10-31T14:00:27;5.80;;;2.30;;
15921;SDS011;8060;50.948;3.146;2023-10-31T14:02:57;4.30;;;2.10;;
15921;SDS011;8060;50.948;3.146;2023-10-31T14:05:25;5.33;;;2.17;;
15921;SDS011;8060;50.948;3.146;2023-10-31T14:07:54;6.03;;;2.10;;
15921;SDS011;8060;50.948;3.146;2023-10-31T14:10:23;6.70;;;2.03;;
15921;SDS011;8060;50.948;3.146;2023-10-31T14:12:52;5.13;;;2.83;;
15921;SDS011;8060;50.948;3.146;2023-10-31T14:15:21;4.13;;;2.30;;
15921;SDS011;8060;50.948;3.146;2023-10-31T14:17:50;5.77;;;2.80;;
15921;SDS011;8060;50.948;3.146;2023-10-31T14:20:19;5.63;;;2.63;;
15921;SDS011;8060;50.948;3.146;2023-10-31T14:22:48;8.67;;;3.57;;
15921;SDS011;8060;50.948;3.146;2023-10-31T14:25:16;8.23;;;3.23;;
15921;SDS011;8060;50.948;3.146;2023-10-31T14:27:44;5.93;;;3.10;;
15921;SDS011;8060;50.948;3.146;2023-10-31T14:30:12;11.33;;;4.97;;
15921;SDS011;8060;50.948;3.146;2023-10-31T14:32:41;11.03;;;3.57;;
15921;SDS011;8060;50.948;3.146;2023-10-31T14:35:09;7.47;;;3.20;;
15921;SDS011;8060;50.948;3.146;2023-10-31T14:37:39;5.80;;;3.20;;
15921;SDS011;8060;50.948;3.146;2023-10-31T14:40:07;9.90;;;3.67;;
15921;SDS011;8060;50.948;3.146;2023-10-31T14:42:36;11.90;;;3.57;;
15921;SDS011;8060;50.948;3.146;2023-10-31T14:45:05;6.70;;;2.97;;
15921;SDS011;8060;50.948;3.146;2023-10-31T14:47:34;8.77;;;3.60;;
15921;SDS011;8060;50.948;3.146;2023-10-31T14:50:03;9.70;;;3.17;;
15921;SDS011;8060;50.948;3.146;2023-10-31T14:52:32;12.23;;;3.20;;
15921;SDS011;8060;50.948;3.146;2023-10-31T14:55:02;8.60;;;3.23;;
15921;SDS011;8060;50.948;3.146;2023-10-31T14:57:30;13.77;;;3.50;;